Time;durP1;ratioP1;P1;durP2;ratioP2;P2;SDS_P1;SDS_P2;PMS_P1;PMS_P2;Temp;Humidity;BMP_temperature;BMP_pressure;BME280_temperature;BME280_humidity;BME280_pressure;Samples;Min_cycle;Max_cycle;Signal;HPM_P1;HPM_P2
2020/12/22 00:02:24;;;;;;;;;;;;;;;4.06;85.26;100485.75;4920752;29;19931;-75
2020/12/22 00:04:54;;;;;;;;;;;;;;;4.07;85.19;100486.63;4920691;29;19927;-75
2020/12/22 00:07:26;;;;;;;;;;;;;;;4.07;85.24;100482.44;4920530;29;19962;-75
2020/12/22 00:09:57;;;;;;;;;;;;;;;4.08;85.06;100481.63;4920570;29;20381;-72
2020/12/22 00:12:28;;;;;;;;;;;;;;;4.07;85.14;100477.41;4920484;29;19934;-71
2020/12/22 00:14:59;;;;;;;;;;;;;;;4.09;85.78;100485.03;4920781;29;19927;-71
2020/12/22 00:17:30;;;;;;;;;;;;;;;4.11;85.17;100467.38;4920362;29;20384;-71
2020/12/22 00:20:04;;;;;;;;;;;;;;;4.09;85.50;100474.91;4920381;29;19931;-72
2020/12/22 00:22:32;;;;;;;;;;;;;;;4.11;84.95;100482.53;4920515;29;19934;-75
2020/12/22 00:25:02;;;;;;;;;;;;;;;4.11;84.90;100473.31;4920274;29;19927;-74
2020/12/22 00:28:01;;;;;;;;;;;;;;;4.12;85.15;100474.19;4567244;23;20295;-73
2020/12/22 00:30:33;;;;;;;;;;;;;;;4.13;85.03;100470.88;4939114;29;20385;-71
2020/12/22 00:33:05;;;;;;;;;;;;;;;4.12;85.34;100479.22;4938397;29;19934;-71
2020/12/22 00:35:38;;;;;;;;;;;;;;;4.15;84.83;100479.34;4939030;29;20013;-72
2020/12/22 00:38:09;;;;;;;;;;;;;;;4.15;85.15;100470.09;4921945;29;19969;-73
2020/12/22 00:40:39;;;;;;;;;;;;;;;4.15;84.86;100465.03;4939295;29;19941;-73
2020/12/22 00:43:07;;;;;;;;;;;;;;;4.18;85.09;100466.81;4938795;29;20047;-71
2020/12/22 00:45:38;;;;;;;;;;;;;;;4.18;84.69;100470.22;4939091;29;19927;-72
2020/12/22 00:48:28;;;;;;;;;;;;;;;4.21;84.42;100472.84;4938575;29;20380;-71
2020/12/22 00:50:59;;;;;;;;;;;;;;;4.21;84.74;100469.47;4938770;29;20005;-72
2020/12/22 00:53:27;;;;;;;;;;;;;;;4.20;84.38;100472.81;4938677;29;19926;-73
2020/12/22 00:55:55;;;;;;;;;;;;;;;4.22;84.22;100486.34;4938698;29;19927;-72
2020/12/22 00:58:47;;;;;;;;;;;;;;;4.24;84.52;100484.75;4917959;29;19927;-73
2020/12/22 01:01:15;;;;;;;;;;;;;;;4.22;84.12;100471.19;4918048;29;19971;-73
2020/12/22 01:03:46;;;;;;;;;;;;;;;4.21;84.28;100479.56;4917490;29;19935;-72
2020/12/22 01:06:17;;;;;;;;;;;;;;;4.21;84.50;100479.56;4917590;29;20373;-73
2020/12/22 01:08:49;;;;;;;;;;;;;;;4.17;84.66;100477.75;4917357;29;20300;-72
2020/12/22 01:11:22;;;;;;;;;;;;;;;4.18;84.96;100475.25;4917644;29;19934;-72
2020/12/22 01:13:53;;;;;;;;;;;;;;;4.13;84.70;100465.81;4917597;29;19955;-73
2020/12/22 01:16:24;;;;;;;;;;;;;;;4.11;84.81;100469.91;4917514;29;19934;-72
2020/12/22 01:18:58;;;;;;;;;;;;;;;4.10;84.75;100461.50;4917522;29;20385;-71
2020/12/22 01:21:29;;;;;;;;;;;;;;;4.11;85.00;100462.34;4917756;29;19927;-73
2020/12/22 01:24:00;;;;;;;;;;;;;;;4.12;85.00;100453.97;4917324;29;19931;-73
2020/12/22 01:26:27;;;;;;;;;;;;;;;4.11;85.22;100454.75;4916829;29;20380;-71
2020/12/22 01:28:54;;;;;;;;;;;;;;;4.10;85.13;100460.63;4917016;29;19934;-72
2020/12/22 01:31:26;;;;;;;;;;;;;;;4.07;85.10;100469.81;4917065;29;19998;-73
2020/12/22 01:33:54;;;;;;;;;;;;;;;4.06;85.71;100462.16;4916947;29;19982;-71
2020/12/22 01:36:25;;;;;;;;;;;;;;;4.05;85.72;100463.81;4929280;29;19927;-73
2020/12/22 01:38:53;;;;;;;;;;;;;;;4.06;85.20;100470.63;4938052;29;19930;-71
2020/12/22 01:41:21;;;;;;;;;;;;;;;4.06;85.45;100473.13;4937715;29;19927;-71
2020/12/22 01:43:54;;;;;;;;;;;;;;;4.09;85.70;100469.88;4937543;29;19933;-72
2020/12/22 01:46:24;;;;;;;;;;;;;;;4.12;85.65;100469.13;4937177;29;19926;-71
2020/12/22 01:49:04;;;;;;;;;;;;;;;4.20;85.45;100458.47;4937678;29;19934;-71
2020/12/22 01:51:36;;;;;;;;;;;;;;;4.26;84.84;100458.72;4937544;29;20361;-73
2020/12/22 01:54:06;;;;;;;;;;;;;;;4.26;84.78;100456.19;4937664;29;19927;-72
2020/12/22 01:56:34;;;;;;;;;;;;;;;4.25;84.44;100451.94;4937580;29;19982;-72
2020/12/22 01:59:01;;;;;;;;;;;;;;;4.28;84.67;100451.19;4937508;29;19934;-73
2020/12/22 02:01:31;;;;;;;;;;;;;;;4.27;84.33;100444.44;4937333;29;19938;-72
2020/12/22 02:04:02;;;;;;;;;;;;;;;4.26;84.19;100445.22;4937508;29;19926;-73
2020/12/22 02:06:36;;;;;;;;;;;;;;;4.25;84.13;100446.06;4937627;29;19950;-73
2020/12/22 02:09:04;;;;;;;;;;;;;;;4.23;84.42;100452.69;4937608;29;19927;-71
2020/12/22 02:11:35;;;;;;;;;;;;;;;4.23;84.87;100460.28;4937261;29;19934;-71
2020/12/22 02:14:03;;;;;;;;;;;;;;;4.23;84.86;100452.69;4937596;29;19930;-73
2020/12/22 02:16:38;;;;;;;;;;;;;;;4.22;84.65;100451.00;4562769;23;21753;-72
2020/12/22 02:19:25;;;;;;;;;;;;;;;4.19;84.56;100445.81;4937222;29;20376;-70
2020/12/22 02:21:56;;;;;;;;;;;;;;;4.20;84.85;100437.44;4937183;29;19926;-71
2020/12/22 02:24:31;;;;;;;;;;;;;;;4.18;84.61;100429.78;4937215;29;20013;-71
2020/12/22 02:27:00;;;;;;;;;;;;;;;4.20;84.84;100432.38;4937070;29;20348;-71
2020/12/22 02:29:31;;;;;;;;;;;;;;;4.21;84.93;100429.03;4936977;29;19981;-71
2020/12/22 02:32:02;;;;;;;;;;;;;;;4.18;84.71;100428.91;4937255;29;19934;-71
2020/12/22 02:34:34;;;;;;;;;;;;;;;4.19;85.10;100433.19;4937239;29;19931;-71
2020/12/22 02:37:06;;;;;;;;;;;;;;;4.19;85.38;100420.56;4937094;29;20035;-70
2020/12/22 02:39:36;;;;;;;;;;;;;;;4.21;85.29;100418.94;4936895;29;20292;-71
2020/12/22 02:42:06;;;;;;;;;;;;;;;4.20;85.59;100423.13;4936902;29;19927;-71
2020/12/22 02:44:36;;;;;;;;;;;;;;;4.21;84.82;100413.88;4937341;29;19933;-70
2020/12/22 02:47:05;;;;;;;;;;;;;;;4.24;84.73;100406.41;4937437;29;19935;-71
2020/12/22 02:49:45;;;;;;;;;;;;;;;4.24;84.89;100398.84;4936831;29;19977;-71
2020/12/22 02:52:14;;;;;;;;;;;;;;;4.24;84.94;100394.66;4920036;29;19927;-71
2020/12/22 02:54:44;;;;;;;;;;;;;;;4.27;84.44;100402.31;4936738;29;19934;-71
2020/12/22 02:57:12;;;;;;;;;;;;;;;4.29;84.31;100389.78;4936647;29;19934;-71
2020/12/22 02:59:42;;;;;;;;;;;;;;;4.27;84.46;100384.63;4937195;29;19927;-71
2020/12/22 03:02:10;;;;;;;;;;;;;;;4.26;84.28;100371.97;4936702;29;20361;-71
2020/12/22 03:07:48;;;;;;;;;;;;;;;4.31;83.98;100390.69;4898892;29;19927;-69
2020/12/22 03:10:18;;;;;;;;;;;;;;;4.29;84.07;100397.34;4898710;29;20005;-72
2020/12/22 03:12:48;;;;;;;;;;;;;;;4.27;84.35;100399.81;4899291;29;19927;-69
2020/12/22 03:15:20;;;;;;;;;;;;;;;4.26;84.47;100392.19;4898756;29;20013;-71
2020/12/22 03:17:50;;;;;;;;;;;;;;;4.26;84.29;100389.66;4898806;29;19932;-71
2020/12/22 03:20:21;;;;;;;;;;;;;;;4.26;84.16;100387.13;4898746;29;19935;-71
2020/12/22 03:22:52;;;;;;;;;;;;;;;4.25;84.63;100385.44;4898949;29;19928;-70
2020/12/22 03:25:21;;;;;;;;;;;;;;;4.27;84.81;100386.34;4898679;29;19928;-71
2020/12/22 03:27:51;;;;;;;;;;;;;;;4.28;84.55;100390.56;4898906;29;19934;-70
2020/12/22 03:30:21;;;;;;;;;;;;;;;4.28;84.75;100376.28;4898604;29;19934;-71
2020/12/22 03:32:52;;;;;;;;;;;;;;;4.28;84.20;100370.34;4898683;29;19931;-71
2020/12/22 03:35:19;;;;;;;;;;;;;;;4.28;84.67;100366.16;4898603;29;19938;-71
2020/12/22 03:37:50;;;;;;;;;;;;;;;4.27;84.51;100358.53;4898479;29;20313;-71
2020/12/22 03:40:20;;;;;;;;;;;;;;;4.29;84.10;100351.88;4898582;29;19963;-71
2020/12/22 03:42:47;;;;;;;;;;;;;;;4.31;84.48;100360.34;4899046;29;19935;-71
2020/12/22 03:47:58;;;;;;;;;;;;;;;4.33;84.54;100353.69;4859611;29;19928;-71
2020/12/22 03:50:25;;;;;;;;;;;;;;;4.32;84.79;100346.94;4859139;29;19936;-71
2020/12/22 03:52:58;;;;;;;;;;;;;;;4.32;84.51;100347.75;4859585;29;19932;-71
2020/12/22 03:55:27;;;;;;;;;;;;;;;4.31;84.20;100345.19;4859134;29;20462;-71
2020/12/22 03:58:00;;;;;;;;;;;;;;;4.31;84.41;100340.16;4859425;29;19932;-71
2020/12/22 04:00:27;;;;;;;;;;;;;;;4.31;84.58;100346.06;4859528;29;20043;-71
2020/12/22 04:02:58;;;;;;;;;;;;;;;4.32;84.07;100331.78;4859403;29;19929;-71
2020/12/22 04:05:29;;;;;;;;;;;;;;;4.33;84.10;100333.47;4858864;29;19928;-71
2020/12/22 04:07:59;;;;;;;;;;;;;;;4.33;84.20;100323.38;4860029;29;20066;-71
2020/12/22 04:10:28;;;;;;;;;;;;;;;4.31;83.99;100315.75;4862377;29;19976;-70
2020/12/22 04:12:58;;;;;;;;;;;;;;;4.32;84.15;100316.63;4862768;29;20390;-71
2020/12/22 04:15:25;;;;;;;;;;;;;;;4.32;83.61;100309.03;4862366;29;19968;-71
2020/12/22 04:17:53;;;;;;;;;;;;;;;4.31;84.18;100299.72;4862108;29;19928;-72
2020/12/22 04:20:39;;;;;;;;;;;;;;;4.30;84.28;100303.03;4862248;29;20370;-72
2020/12/22 04:23:06;;;;;;;;;;;;;;;4.31;84.06;100304.78;4862056;29;19932;-71
2020/12/22 04:25:49;;;;;;;;;;;;;;;4.31;84.53;100305.63;4868072;29;20354;-71
2020/12/22 04:28:20;;;;;;;;;;;;;;;4.31;84.30;100303.13;4881137;29;19976;-71
2020/12/22 04:30:50;;;;;;;;;;;;;;;4.31;84.58;100299.72;4880769;29;20390;-72
2020/12/22 04:33:22;;;;;;;;;;;;;;;4.31;84.60;100297.19;4865177;29;19927;-71
2020/12/22 04:35:53;;;;;;;;;;;;;;;4.30;84.74;100298.00;4880920;29;19931;-71
2020/12/22 04:38:23;;;;;;;;;;;;;;;4.30;84.56;100298.84;4880956;29;19975;-72
2020/12/22 04:40:54;;;;;;;;;;;;;;;4.32;84.15;100306.50;4880655;29;19928;-69
2020/12/22 04:43:22;;;;;;;;;;;;;;;4.32;84.60;100302.28;4880521;29;19976;-71
2020/12/22 04:45:55;;;;;;;;;;;;;;;4.35;84.41;100316.69;4880288;29;19928;-71
2020/12/22 04:48:25;;;;;;;;;;;;;;;4.35;84.52;100321.75;4880297;29;19931;-70
2020/12/22 04:51:19;;;;;;;;;;;;;;;4.34;84.26;100317.53;4824912;29;20444;-71
2020/12/22 04:54:07;;;;;;;;;;;;;;;4.33;84.60;100315.78;4825127;29;19964;-69
2020/12/22 04:56:38;;;;;;;;;;;;;;;4.35;84.58;100326.81;4809820;29;20335;-70
2020/12/22 04:59:11;;;;;;;;;;;;;;;4.36;84.16;100329.41;4825179;29;19929;-71
2020/12/22 05:01:41;;;;;;;;;;;;;;;4.36;84.56;100320.94;4824811;29;19929;-69
2020/12/22 05:04:10;;;;;;;;;;;;;;;4.32;84.49;100317.44;4860684;29;19977;-70
2020/12/22 05:06:43;;;;;;;;;;;;;;;4.35;84.18;100311.63;4861221;29;19928;-70
2020/12/22 05:09:13;;;;;;;;;;;;;;;4.32;84.58;100306.50;4861565;29;19932;-71
2020/12/22 05:11:45;;;;;;;;;;;;;;;4.28;84.55;100299.59;4861629;29;19935;-71
2020/12/22 05:14:19;;;;;;;;;;;;;;;4.27;84.89;100310.53;4861350;29;20285;-71
2020/12/22 05:16:49;;;;;;;;;;;;;;;4.26;85.24;100311.34;4914013;29;19950;-71
2020/12/22 05:19:22;;;;;;;;;;;;;;;4.28;85.18;100309.72;4919212;29;19934;-70
2020/12/22 05:21:53;;;;;;;;;;;;;;;4.28;84.91;100315.63;4919564;29;19933;-70
2020/12/22 05:24:23;;;;;;;;;;;;;;;4.29;85.15;100324.09;4919194;29;19962;-72
2020/12/22 05:26:55;;;;;;;;;;;;;;;4.31;85.23;100317.41;4919254;29;19982;-71
2020/12/22 05:29:25;;;;;;;;;;;;;;;4.32;84.86;100311.56;4918938;29;19931;-70
2020/12/22 05:31:56;;;;;;;;;;;;;;;4.35;84.97;100311.63;4919352;29;20373;-69
2020/12/22 05:34:27;;;;;;;;;;;;;;;4.38;84.51;100314.28;4902115;29;19934;-71
2020/12/22 05:36:59;;;;;;;;;;;;;;;4.37;84.50;100310.03;4919028;29;19927;-71
2020/12/22 05:39:26;;;;;;;;;;;;;;;4.39;84.52;100318.53;4919139;29;19927;-70
2020/12/22 05:41:57;;;;;;;;;;;;;;;4.43;84.42;100312.78;4918899;29;19927;-70
2020/12/22 05:44:29;;;;;;;;;;;;;;;4.46;84.14;100315.41;4918806;29;19927;-71
2020/12/22 05:47:00;;;;;;;;;;;;;;;4.45;84.16;100313.69;4919047;29;19931;-70
2020/12/22 05:49:30;;;;;;;;;;;;;;;4.44;84.47;100306.91;4918659;29;19939;-71
2020/12/22 05:52:01;;;;;;;;;;;;;;;4.43;84.36;100307.72;4918710;29;19938;-70
2020/12/22 05:54:31;;;;;;;;;;;;;;;4.42;84.16;100303.47;4918873;29;20364;-70
2020/12/22 05:57:06;;;;;;;;;;;;;;;4.42;84.40;100303.47;4918647;29;19959;-72
2020/12/22 05:59:36;;;;;;;;;;;;;;;4.40;84.13;100300.03;4918548;29;19974;-69
2020/12/22 06:02:08;;;;;;;;;;;;;;;4.38;84.38;100296.59;4918563;29;20282;-71
2020/12/22 06:04:39;;;;;;;;;;;;;;;4.37;84.55;100299.91;4918421;29;19934;-70
2020/12/22 06:07:09;;;;;;;;;;;;;;;4.35;84.52;100302.41;4918507;29;19967;-71
2020/12/22 06:09:43;;;;;;;;;;;;;;;4.35;84.21;100299.00;4918286;29;19927;-70
2020/12/22 06:12:16;;;;;;;;;;;;;;;4.35;84.45;100299.00;4918415;29;19927;-70
2020/12/22 06:14:47;;;;;;;;;;;;;;;4.35;84.08;100299.88;4918825;29;19927;-71
2020/12/22 06:17:17;;;;;;;;;;;;;;;4.37;84.09;100299.91;4918495;29;19927;-72
2020/12/22 06:19:46;;;;;;;;;;;;;;;4.37;84.30;100294.88;4915815;29;19933;-72
2020/12/22 06:22:14;;;;;;;;;;;;;;;4.38;84.28;100296.59;4915802;29;20426;-72
2020/12/22 06:24:44;;;;;;;;;;;;;;;4.39;83.87;100281.47;4915977;29;20305;-73
2020/12/22 06:27:14;;;;;;;;;;;;;;;4.40;83.46;100289.91;4913832;29;19969;-71
2020/12/22 06:29:46;;;;;;;;;;;;;;;4.39;83.61;100290.75;4917742;29;20330;-71
2020/12/22 06:32:20;;;;;;;;;;;;;;;4.39;83.68;100285.69;4917452;29;19958;-72
2020/12/22 06:34:51;;;;;;;;;;;;;;;4.40;83.98;100300.03;4918030;29;19934;-72
2020/12/22 06:37:21;;;;;;;;;;;;;;;4.43;83.78;100300.13;4918253;29;19971;-72
2020/12/22 06:39:51;;;;;;;;;;;;;;;4.43;83.53;100300.13;4918185;29;19927;-71
2020/12/22 06:42:33;;;;;;;;;;;;;;;4.41;84.07;100287.47;4914139;29;20289;-72
2020/12/22 06:45:15;;;;;;;;;;;;;;;4.43;83.64;100279.91;4910577;29;20300;-72
2020/12/22 06:47:49;;;;;;;;;;;;;;;4.43;84.00;100284.97;4917839;29;19927;-69
2020/12/22 06:50:34;;;;;;;;;;;;;;;4.42;83.61;100288.28;4917874;29;19934;-71
2020/12/22 06:53:02;;;;;;;;;;;;;;;4.41;83.85;100287.47;4901158;29;19927;-71
2020/12/22 06:55:36;;;;;;;;;;;;;;;4.40;83.57;100285.72;4917747;29;19931;-72
2020/12/22 06:58:05;;;;;;;;;;;;;;;4.43;83.59;100279.91;4917946;29;19927;-70
2020/12/22 07:00:36;;;;;;;;;;;;;;;4.41;83.54;100269.78;4917677;29;20022;-71
2020/12/22 07:03:13;;;;;;;;;;;;;;;4.44;83.82;100266.50;4917706;29;20296;-71
2020/12/22 07:05:44;;;;;;;;;;;;;;;4.45;83.74;100263.13;4917648;29;19935;-71
2020/12/22 07:08:13;;;;;;;;;;;;;;;4.45;84.01;100263.13;4917988;29;19927;-71
2020/12/22 07:10:45;;;;;;;;;;;;;;;4.45;83.57;100258.94;4917495;29;19938;-70
2020/12/22 07:13:23;;;;;;;;;;;;;;;4.45;83.74;100253.03;4917698;29;19969;-71
2020/12/22 07:15:50;;;;;;;;;;;;;;;4.46;83.90;100254.75;4917546;29;20352;-71
2020/12/22 07:18:24;;;;;;;;;;;;;;;4.45;83.75;100264.00;4917599;29;20293;-71
2020/12/22 07:20:51;;;;;;;;;;;;;;;4.46;83.87;100262.34;4918021;29;19974;-71
2020/12/22 07:23:21;;;;;;;;;;;;;;;4.47;83.49;100267.44;4917509;29;20377;-70
2020/12/22 07:25:49;;;;;;;;;;;;;;;4.48;83.97;100264.09;4917461;29;19934;-71
2020/12/22 07:28:19;;;;;;;;;;;;;;;4.49;83.72;100270.00;4917379;29;20456;-73
2020/12/22 07:30:47;;;;;;;;;;;;;;;4.49;83.71;100277.56;4917455;29;19931;-73
2020/12/22 07:33:17;;;;;;;;;;;;;;;4.49;84.15;100273.41;4900581;29;19994;-71
2020/12/22 07:35:48;;;;;;;;;;;;;;;4.52;83.97;100270.09;4917357;29;20457;-71
2020/12/22 07:38:17;;;;;;;;;;;;;;;4.52;83.98;100275.16;4917383;29;19927;-71
2020/12/22 07:40:44;;;;;;;;;;;;;;;4.56;83.90;100271.91;4917801;29;20004;-71
2020/12/22 07:43:14;;;;;;;;;;;;;;;4.56;83.48;100282.88;4902091;29;19930;-72
2020/12/22 07:45:46;;;;;;;;;;;;;;;4.57;83.74;100281.22;4921098;29;20001;-72
2020/12/22 07:48:15;;;;;;;;;;;;;;;4.59;84.04;100282.13;4921198;29;19927;-72
2020/12/22 07:50:43;;;;;;;;;;;;;;;4.56;83.89;100282.03;4903811;29;20000;-73
2020/12/22 07:53:12;;;;;;;;;;;;;;;4.55;83.96;100286.25;4921038;29;19979;-71
2020/12/22 07:55:42;;;;;;;;;;;;;;;4.51;84.17;100283.56;4921217;29;19927;-71
2020/12/22 07:58:13;;;;;;;;;;;;;;;4.49;84.65;100270.00;4920843;29;19983;-71
2020/12/22 08:00:41;;;;;;;;;;;;;;;4.50;84.63;100267.53;4920646;29;19947;-71
2020/12/22 08:03:11;;;;;;;;;;;;;;;4.49;84.86;100267.47;4920626;29;19927;-71
2020/12/22 08:06:03;;;;;;;;;;;;;;;4.47;84.75;100266.56;4920580;29;19934;-71
2020/12/22 08:08:32;;;;;;;;;;;;;;;4.50;85.23;100267.53;4919119;29;19927;-71
2020/12/22 08:11:00;;;;;;;;;;;;;;;4.54;84.51;100266.81;4918673;29;20357;-71
2020/12/22 08:13:30;;;;;;;;;;;;;;;4.54;84.95;100268.47;4918926;29;19978;-71
2020/12/22 08:15:58;;;;;;;;;;;;;;;4.55;84.53;100260.97;4918426;29;19927;-71
2020/12/22 08:18:28;;;;;;;;;;;;;;;4.57;85.11;100259.34;4918531;29;20441;-71
2020/12/22 08:20:56;;;;;;;;;;;;;;;4.58;84.88;100250.09;4918577;29;19978;-72
2020/12/22 08:23:27;;;;;;;;;;;;;;;4.58;84.65;100253.47;4903219;29;19963;-73
2020/12/22 08:25:55;;;;;;;;;;;;;;;4.59;84.36;100251.81;4918462;29;19927;-73
2020/12/22 08:28:26;;;;;;;;;;;;;;;4.57;84.89;100238.25;4918388;29;19927;-73
2020/12/22 08:30:54;;;;;;;;;;;;;;;4.58;84.92;100234.94;4918120;29;20445;-73
2020/12/22 08:33:24;;;;;;;;;;;;;;;4.58;84.59;100223.13;4902454;29;19927;-73
2020/12/22 08:35:54;;;;;;;;;;;;;;;4.58;84.93;100214.72;4918172;29;20027;-74
2020/12/22 08:38:23;;;;;;;;;;;;;;;4.63;84.64;100205.63;4918375;29;20400;-73
2020/12/22 08:40:50;;;;;;;;;;;;;;;4.65;84.60;100197.22;4919999;29;19970;-73
2020/12/22 08:43:19;;;;;;;;;;;;;;;4.69;84.50;100193.16;4920127;29;19927;-73
2020/12/22 08:45:50;;;;;;;;;;;;;;;4.68;84.54;100192.28;4920206;29;19986;-74
2020/12/22 08:48:17;;;;;;;;;;;;;;;4.69;84.25;100177.97;4920288;29;19927;-74
2020/12/22 08:50:49;;;;;;;;;;;;;;;4.68;84.25;100172.06;4919760;29;19927;-74
2020/12/22 08:53:35;;;;;;;;;;;;;;;4.69;84.20;100177.97;4919493;29;20282;-73
2020/12/22 08:56:05;;;;;;;;;;;;;;;4.69;83.99;100193.16;4919641;29;20000;-73
2020/12/22 08:58:34;;;;;;;;;;;;;;;4.70;84.30;100215.09;4919649;29;19927;-73
2020/12/22 09:01:16;;;;;;;;;;;;;;;4.68;84.09;100229.34;4919589;29;19931;-73
2020/12/22 09:03:47;;;;;;;;;;;;;;;4.69;84.21;100248.75;4919680;29;19934;-72
2020/12/22 09:06:15;;;;;;;;;;;;;;;4.69;84.01;100258.88;4919312;29;19927;-73
2020/12/22 09:08:42;;;;;;;;;;;;;;;4.69;84.52;100258.88;4919483;29;20018;-73
2020/12/22 09:11:17;;;;;;;;;;;;;;;4.68;84.69;100240.31;4919363;29;19938;-73
2020/12/22 09:13:45;;;;;;;;;;;;;;;4.64;84.79;100235.13;4919335;29;19927;-73
2020/12/22 09:16:17;;;;;;;;;;;;;;;4.60;85.31;100233.31;4919305;29;20274;-72
2020/12/22 09:18:44;;;;;;;;;;;;;;;4.57;85.17;100218.03;4919517;29;19951;-70
2020/12/22 09:21:12;;;;;;;;;;;;;;;4.54;85.18;100220.47;4919226;29;19927;-71
2020/12/22 09:23:54;;;;;;;;;;;;;;;4.54;85.29;100197.72;4919226;29;20381;-71
2020/12/22 09:26:21;;;;;;;;;;;;;;;4.51;85.09;100197.66;4919129;29;20271;-70
2020/12/22 09:28:49;;;;;;;;;;;;;;;4.50;85.45;100198.44;4919094;29;20400;-70
2020/12/22 09:31:22;;;;;;;;;;;;;;;4.51;85.39;100190.06;4919296;29;19927;-71
2020/12/22 09:33:49;;;;;;;;;;;;;;;4.51;85.66;100207.75;4919278;29;19934;-71
2020/12/22 09:36:17;;;;;;;;;;;;;;;4.52;85.74;100199.34;4918922;29;20382;-73
2020/12/22 09:38:46;;;;;;;;;;;;;;;4.55;85.70;100204.50;4902315;29;20033;-73
2020/12/22 09:41:14;;;;;;;;;;;;;;;4.57;85.75;100205.41;4918738;29;19927;-73
2020/12/22 09:43:42;;;;;;;;;;;;;;;4.58;85.66;100204.59;4919074;29;20378;-73
2020/12/22 09:46:22;;;;;;;;;;;;;;;4.59;85.66;100202.13;4918970;29;20294;-71
2020/12/22 09:48:50;;;;;;;;;;;;;;;4.62;85.67;100201.34;4918704;29;20452;-71
2020/12/22 09:51:17;;;;;;;;;;;;;;;4.64;85.91;100180.38;4918826;29;19958;-71
2020/12/22 09:53:46;;;;;;;;;;;;;;;4.65;85.70;100163.53;4917133;29;19928;-71
2020/12/22 09:56:13;;;;;;;;;;;;;;;4.66;85.07;100139.97;4918539;29;19950;-71
2020/12/22 09:58:40;;;;;;;;;;;;;;;4.66;85.57;100137.44;4918402;29;19953;-71
2020/12/22 10:01:08;;;;;;;;;;;;;;;4.63;85.64;100152.53;4918519;29;20420;-71
2020/12/22 10:03:36;;;;;;;;;;;;;;;4.59;85.13;100156.63;4918407;29;19931;-73
2020/12/22 10:06:04;;;;;;;;;;;;;;;4.58;85.54;100165.00;4917671;29;19931;-73
2020/12/22 10:08:31;;;;;;;;;;;;;;;4.56;85.85;100165.75;4918406;29;19986;-73
2020/12/22 10:11:02;;;;;;;;;;;;;;;4.54;85.93;100167.38;4901351;29;19950;-72
2020/12/22 10:13:29;;;;;;;;;;;;;;;4.52;86.20;100164.81;4918433;29;19955;-72
2020/12/22 10:16:00;;;;;;;;;;;;;;;4.50;86.53;100161.41;4918321;29;19931;-72
2020/12/22 10:18:27;;;;;;;;;;;;;;;4.49;86.79;100164.72;4918248;29;19927;-72
2020/12/22 10:20:55;;;;;;;;;;;;;;;4.46;86.52;100163.78;4918518;29;20035;-73
2020/12/22 10:23:23;;;;;;;;;;;;;;;4.46;87.12;100153.69;4918374;29;20400;-72
2020/12/22 10:25:50;;;;;;;;;;;;;;;4.43;86.91;100156.09;4901313;29;20029;-72
2020/12/22 10:28:17;;;;;;;;;;;;;;;4.42;87.16;100151.84;4918298;29;19934;-73
2020/12/22 10:30:46;;;;;;;;;;;;;;;4.40;87.28;100149.28;4917874;29;19974;-72
2020/12/22 10:33:13;;;;;;;;;;;;;;;4.42;86.99;100142.59;4918362;29;20382;-71
2020/12/22 10:35:41;;;;;;;;;;;;;;;4.42;87.14;100161.94;4918314;29;19931;-72
2020/12/22 10:38:10;;;;;;;;;;;;;;;4.42;87.26;100164.47;4901010;29;19934;-72
2020/12/22 10:40:37;;;;;;;;;;;;;;;4.40;87.50;100171.16;4917986;29;20308;-72
2020/12/22 10:43:05;;;;;;;;;;;;;;;4.38;87.46;100163.53;4918000;29;19942;-72
2020/12/22 10:45:33;;;;;;;;;;;;;;;4.39;87.45;100151.78;4917900;29;20341;-72
2020/12/22 10:48:02;;;;;;;;;;;;;;;4.38;87.68;100140.81;4917839;29;20056;-71
2020/12/22 10:50:29;;;;;;;;;;;;;;;4.37;87.67;100138.22;4917819;29;19967;-70
2020/12/22 10:52:57;;;;;;;;;;;;;;;4.37;87.30;100123.06;4917685;29;19974;-71
2020/12/22 10:55:25;;;;;;;;;;;;;;;4.36;87.89;100104.53;4917550;29;19927;-70
2020/12/22 10:57:53;;;;;;;;;;;;;;;4.36;87.60;100103.66;4917663;29;19927;-70
2020/12/22 11:00:20;;;;;;;;;;;;;;;4.36;87.97;100122.22;4918001;29;19927;-73
2020/12/22 11:02:52;;;;;;;;;;;;;;;4.36;88.14;100133.97;4913788;29;19986;-72
2020/12/22 11:08:04;;;;;;;;;;;;;;;4.35;88.29;100137.31;4916532;29;19927;-72
2020/12/22 11:10:32;;;;;;;;;;;;;;;4.36;88.09;100141.56;4916986;29;19931;-71
2020/12/22 11:13:00;;;;;;;;;;;;;;;4.36;88.61;100151.66;4917360;29;19975;-72
2020/12/22 11:15:27;;;;;;;;;;;;;;;4.33;88.38;100136.41;4917195;29;19927;-70
2020/12/22 11:17:55;;;;;;;;;;;;;;;4.31;88.67;100132.97;4919318;29;20403;-73
2020/12/22 11:20:23;;;;;;;;;;;;;;;4.33;88.69;100122.13;4920356;29;20377;-73
2020/12/22 11:22:50;;;;;;;;;;;;;;;4.32;88.66;100127.13;4920878;29;19942;-72
2020/12/22 11:25:18;;;;;;;;;;;;;;;4.32;88.93;100120.38;4921409;29;19958;-70
2020/12/22 11:27:46;;;;;;;;;;;;;;;4.32;88.83;100104.38;4921186;29;19975;-70
2020/12/22 11:30:14;;;;;;;;;;;;;;;4.30;88.86;100106.84;4920866;29;19931;-73
2020/12/22 11:32:42;;;;;;;;;;;;;;;4.29;89.43;100114.41;4920202;29;19974;-73
2020/12/22 11:35:11;;;;;;;;;;;;;;;4.28;89.42;100107.63;4920816;29;19938;-73
2020/12/22 11:37:39;;;;;;;;;;;;;;;4.29;89.30;100094.19;4920988;29;19927;-73
2020/12/22 11:40:06;;;;;;;;;;;;;;;4.31;89.01;100092.56;4920652;29;19961;-73
2020/12/22 11:42:51;;;;;;;;;;;;;;;4.33;89.71;100098.50;4862504;29;20391;-73
2020/12/22 11:45:18;;;;;;;;;;;;;;;4.32;89.09;100115.31;4862412;29;20060;-72
2020/12/22 11:47:46;;;;;;;;;;;;;;;4.34;89.23;100118.78;4862505;29;20015;-72
2020/12/22 11:50:13;;;;;;;;;;;;;;;4.37;89.48;100120.53;4862234;29;19928;-71
2020/12/22 11:52:41;;;;;;;;;;;;;;;4.40;89.28;100118.09;4862321;29;19932;-72
2020/12/22 11:55:09;;;;;;;;;;;;;;;4.40;89.35;100128.22;4862464;29;19935;-72
2020/12/22 11:57:36;;;;;;;;;;;;;;;4.39;89.73;100111.34;4862096;29;20011;-72
2020/12/22 12:00:05;;;;;;;;;;;;;;;4.40;89.81;100120.63;4862419;29;20032;-71
2020/12/22 12:02:33;;;;;;;;;;;;;;;4.38;89.40;100105.44;4861862;29;19928;-72
2020/12/22 12:05:01;;;;;;;;;;;;;;;4.38;89.42;100114.66;4862132;29;19935;-72
2020/12/22 12:07:28;;;;;;;;;;;;;;;4.37;89.48;100111.28;4879241;29;20429;-72
2020/12/22 12:09:58;;;;;;;;;;;;;;;4.38;89.43;100104.56;4880659;29;19932;-71
2020/12/22 12:12:26;;;;;;;;;;;;;;;4.37;89.04;100095.25;4880439;29;19935;-72
2020/12/22 12:14:53;;;;;;;;;;;;;;;4.40;89.24;100087.78;4880239;29;19928;-70
2020/12/22 12:17:21;;;;;;;;;;;;;;;4.40;89.42;100082.72;4880054;29;19928;-73
2020/12/22 12:19:49;;;;;;;;;;;;;;;4.38;89.70;100061.63;4886929;29;19971;-72
2020/12/22 12:22:16;;;;;;;;;;;;;;;4.44;89.38;100059.28;4901209;29;19998;-71
2020/12/22 12:24:44;;;;;;;;;;;;;;;4.45;89.49;100060.97;4901326;29;19934;-71
2020/12/22 12:27:11;;;;;;;;;;;;;;;4.47;89.09;100065.28;4901179;29;19931;-71
2020/12/22 12:29:40;;;;;;;;;;;;;;;4.49;89.34;100065.31;4900374;29;19934;-71
2020/12/22 12:32:08;;;;;;;;;;;;;;;4.53;88.96;100055.34;4898043;29;19931;-72
2020/12/22 12:34:36;;;;;;;;;;;;;;;4.51;89.44;100035.91;4900283;29;19932;-72
2020/12/22 12:37:04;;;;;;;;;;;;;;;4.52;88.99;100038.47;4868131;29;19966;-72
2020/12/22 12:39:32;;;;;;;;;;;;;;;4.54;89.32;100035.97;4900487;29;19965;-72
2020/12/22 12:41:59;;;;;;;;;;;;;;;4.58;89.39;100032.75;4884164;29;20325;-72
2020/12/22 12:44:29;;;;;;;;;;;;;;;4.61;89.49;100020.16;4869154;29;20014;-72
2020/12/22 12:46:57;;;;;;;;;;;;;;;4.65;89.33;100011.88;4901003;29;20391;-72
2020/12/22 12:49:24;;;;;;;;;;;;;;;4.65;88.98;100020.28;4900385;29;19927;-71
2020/12/22 12:51:52;;;;;;;;;;;;;;;4.68;88.82;100024.56;4900383;29;20008;-71
2020/12/22 12:54:20;;;;;;;;;;;;;;;4.72;89.23;100031.47;4900412;29;19927;-71
2020/12/22 12:56:48;;;;;;;;;;;;;;;4.71;88.96;100032.25;4900343;29;19927;-71
2020/12/22 12:59:16;;;;;;;;;;;;;;;4.71;89.05;100039.84;4883447;29;20333;-73
2020/12/22 13:01:43;;;;;;;;;;;;;;;4.74;88.95;100027.28;4900990;29;20401;-74
2020/12/22 13:04:12;;;;;;;;;;;;;;;4.72;88.96;100022.22;4900963;29;19935;-72
2020/12/22 13:06:44;;;;;;;;;;;;;;;4.74;88.72;100022.25;4911554;29;20399;-73
2020/12/22 13:09:12;;;;;;;;;;;;;;;4.71;89.05;100025.53;4919674;29;19931;-74
2020/12/22 13:11:44;;;;;;;;;;;;;;;4.72;89.11;100028.94;4919271;29;19958;-74
2020/12/22 13:14:12;;;;;;;;;;;;;;;4.71;88.88;100030.59;4919450;29;20460;-74